createdAt,value
2019-04-20T00:01:25.731Z,14.10
2019-04-20T00:03:51.910Z,14.10
2019-04-20T00:06:21.915Z,14.10
2019-04-20T00:08:59.862Z,14.10
2019-04-20T00:11:29.580Z,14.10
2019-04-20T00:14:02.041Z,14.20
2019-04-20T00:16:25.278Z,14.20
2019-04-20T00:18:58.325Z,14.10
2019-04-20T00:21:49.669Z,14.10
2019-04-20T00:24:21.589Z,14.10
2019-04-20T00:29:35.251Z,14.10
2019-04-20T00:32:04.149Z,14.00
2019-04-20T00:34:29.514Z,14.00
2019-04-20T00:36:54.028Z,13.90
2019-04-20T00:39:25.871Z,13.80
2019-04-20T00:42:01.115Z,13.80
2019-04-20T00:44:33.127Z,13.90
2019-04-20T00:47:11.167Z,13.80
2019-04-20T00:49:45.908Z,13.80
2019-04-20T00:54:32.588Z,13.80
2019-04-20T00:57:13.348Z,13.80
2019-04-20T00:59:55.207Z,13.70
2019-04-20T01:02:20.887Z,13.70
2019-04-20T01:04:56.492Z,13.70
2019-04-20T01:07:32.917Z,13.80
2019-04-20T01:10:13.082Z,13.70
2019-04-20T01:12:44.489Z,13.70
2019-04-20T01:15:24.451Z,13.70
2019-04-20T01:17:45.304Z,13.70
2019-04-20T01:20:15.023Z,13.70
2019-04-20T01:22:53.812Z,13.60
2019-04-20T01:25:23.082Z,13.60
2019-04-20T01:28:07.783Z,13.60
2019-04-20T01:30:28.471Z,13.60
2019-04-20T01:33:03.691Z,13.60
2019-04-20T01:35:40.826Z,13.60
2019-04-20T01:38:12.469Z,13.50
2019-04-20T01:40:25.811Z,13.50
2019-04-20T01:42:55.462Z,13.50
2019-04-20T01:45:29.321Z,13.50
2019-04-20T01:47:58.353Z,13.60
2019-04-20T01:50:30.074Z,13.60
2019-04-20T01:53:10.186Z,13.70
2019-04-20T01:56:01.530Z,13.70
2019-04-20T01:58:33.655Z,13.70
2019-04-20T02:00:45.921Z,13.60
2019-04-20T02:03:38.357Z,13.50
2019-04-20T02:06:11.643Z,13.50
2019-04-20T02:08:37.895Z,13.50
2019-04-20T02:11:09.412Z,13.40
2019-04-20T02:13:44.425Z,13.20
2019-04-20T02:16:21.307Z,13.10
2019-04-20T02:18:58.727Z,12.90
2019-04-20T02:21:28.714Z,12.90
2019-04-20T02:23:52.617Z,12.90
2019-04-20T02:26:15.996Z,13.00
2019-04-20T02:29:14.534Z,12.90
2019-04-20T02:32:05.012Z,12.80
2019-04-20T02:34:24.121Z,12.80
2019-04-20T02:37:14.024Z,12.80
2019-04-20T02:39:37.609Z,12.70
2019-04-20T02:42:14.006Z,12.80
2019-04-20T02:44:44.153Z,12.80
2019-04-20T02:47:14.018Z,12.70
2019-04-20T02:52:33.994Z,12.80
2019-04-20T02:54:42.850Z,12.70
2019-04-20T02:57:12.243Z,12.60
2019-04-20T02:59:58.796Z,12.50
2019-04-20T03:02:01.392Z,12.60
2019-04-20T03:04:28.318Z,12.60
2019-04-20T03:07:00.974Z,12.50
2019-04-20T03:09:40.026Z,12.40
2019-04-20T03:12:28.620Z,12.40
2019-04-20T03:14:35.210Z,12.30
2019-04-20T03:17:15.275Z,12.40
2019-04-20T03:19:40.149Z,12.30
2019-04-20T03:22:13.805Z,12.30
2019-04-20T03:24:48.576Z,12.20
2019-04-20T03:27:16.056Z,12.30
2019-04-20T03:30:07.666Z,12.30
2019-04-20T03:32:57.378Z,12.20
2019-04-20T03:37:38.049Z,12.20
2019-04-20T03:40:01.498Z,12.20
2019-04-20T03:42:18.183Z,12.20
2019-04-20T03:44:54.247Z,12.30
2019-04-20T03:47:31.462Z,12.40
2019-04-20T03:50:10.934Z,12.40
2019-04-20T03:52:38.905Z,12.20
2019-04-20T03:55:16.204Z,12.10
2019-04-20T03:58:01.156Z,12.10
2019-04-20T04:00:37.590Z,12.00
2019-04-20T04:03:26.187Z,12.10
2019-04-20T04:05:46.113Z,12.10
2019-04-20T04:08:10.351Z,12.20
2019-04-20T04:10:52.436Z,12.10
2019-04-20T04:13:11.429Z,11.90
2019-04-20T04:15:48.738Z,11.90
2019-04-20T04:18:22.997Z,11.80
2019-04-20T04:20:54.153Z,11.90
2019-04-20T04:23:38.258Z,12.10
2019-04-20T04:26:12.848Z,12.00
2019-04-20T04:28:36.624Z,11.90
2019-04-20T04:31:12.134Z,12.00
2019-04-20T04:36:10.076Z,11.90
2019-04-20T04:38:54.275Z,12.00
2019-04-20T04:43:48.283Z,12.00
2019-04-20T04:45:59.920Z,11.90
2019-04-20T04:48:35.598Z,11.90
2019-04-20T04:51:11.320Z,11.80
2019-04-20T04:53:44.862Z,11.90
2019-04-20T04:56:09.207Z,11.80
2019-04-20T04:58:36.266Z,11.80
2019-04-20T05:01:11.675Z,11.90
2019-04-20T05:04:04.843Z,12.10
2019-04-20T05:06:29.154Z,12.10
2019-04-20T05:08:51.218Z,12.10
2019-04-20T05:11:17.332Z,12.20
2019-04-20T05:13:54.652Z,12.30
2019-04-20T05:16:38.537Z,12.30
2019-04-20T05:19:13.374Z,12.40
2019-04-20T05:21:55.253Z,12.50
2019-04-20T05:24:25.583Z,12.50
2019-04-20T05:27:10.036Z,12.50
2019-04-20T05:29:22.481Z,12.60
2019-04-20T05:31:53.460Z,12.70
2019-04-20T05:34:38.931Z,12.80
2019-04-20T05:37:17.675Z,12.80
2019-04-20T05:39:45.798Z,12.80
2019-04-20T05:42:17.694Z,12.90
2019-04-20T05:44:46.076Z,13.00
2019-04-20T05:47:16.930Z,13.10
2019-04-20T05:49:45.323Z,13.20
2019-04-20T05:52:29.010Z,13.30
2019-04-20T05:54:51.195Z,13.30
2019-04-20T05:57:27.700Z,13.30
2019-04-20T05:59:59.443Z,13.40
2019-04-20T06:02:27.275Z,13.40
2019-04-20T06:05:04.398Z,13.40
2019-04-20T06:07:42.013Z,13.50
2019-04-20T06:10:00.226Z,13.50
2019-04-20T06:12:33.087Z,13.50
2019-04-20T06:15:08.285Z,13.50
2019-04-20T06:17:58.403Z,13.60
2019-04-20T06:20:36.053Z,13.60
2019-04-20T06:23:24.483Z,13.70
2019-04-20T06:28:28.029Z,13.80
2019-04-20T06:30:52.595Z,13.90
2019-04-20T06:34:18.174Z,13.80
2019-04-20T06:36:53.987Z,14.00
2019-04-20T06:39:18.691Z,14.10
2019-04-20T06:42:02.214Z,14.10
2019-04-20T06:46:53.678Z,14.50
2019-04-20T06:49:24.421Z,14.50
2019-04-20T06:51:58.700Z,14.60
2019-04-20T06:54:28.694Z,14.60
2019-04-20T06:57:07.311Z,14.80
2019-04-20T06:59:38.741Z,14.90
2019-04-20T07:02:12.664Z,15.00
2019-04-20T07:12:06.431Z,15.40
2019-04-20T07:14:34.009Z,15.60
2019-04-20T07:17:26.920Z,15.60
2019-04-20T07:19:50.499Z,15.70
2019-04-20T07:22:43.982Z,15.80
2019-04-20T07:27:35.467Z,16.00
2019-04-20T07:30:07.934Z,16.10
2019-04-20T07:32:48.399Z,16.20
2019-04-20T07:35:08.500Z,16.20
2019-04-20T07:40:16.278Z,16.40
2019-04-20T07:42:49.498Z,16.50
2019-04-20T07:45:21.665Z,16.50
2019-04-20T07:50:14.902Z,16.70
2019-04-20T07:52:43.288Z,17.00
2019-04-20T07:55:49.607Z,17.10
2019-04-20T07:57:48.810Z,17.20
2019-04-20T08:00:38.328Z,17.30
2019-04-20T08:03:21.607Z,17.40
2019-04-20T08:05:43.031Z,17.60
2019-04-20T08:08:23.964Z,17.60
2019-04-20T08:10:54.341Z,17.60
2019-04-20T08:13:33.395Z,17.80
2019-04-20T08:16:04.659Z,17.90
2019-04-20T08:18:35.134Z,17.90
2019-04-20T08:21:17.916Z,18.00
2019-04-20T08:23:31.718Z,18.20
2019-04-20T08:25:52.203Z,18.40
2019-04-20T08:28:24.182Z,18.50
2019-04-20T08:31:21.836Z,18.60
2019-04-20T08:34:12.161Z,18.80
2019-04-20T08:36:33.168Z,18.90
2019-04-20T08:41:31.628Z,19.20
2019-04-20T08:44:21.733Z,19.20
2019-04-20T08:46:47.718Z,19.30
2019-04-20T08:49:11.575Z,19.40
2019-04-20T08:51:49.603Z,19.60
2019-04-20T08:54:14.304Z,19.60
2019-04-20T08:56:36.120Z,19.60
2019-04-20T08:58:57.381Z,19.70
2019-04-20T09:01:31.929Z,19.80
2019-04-20T09:04:09.029Z,19.90
2019-04-20T09:06:41.976Z,19.70
2019-04-20T09:09:34.740Z,19.80
2019-04-20T09:11:58.968Z,20.20
2019-04-20T09:14:21.474Z,20.40
2019-04-20T09:16:59.168Z,20.50
2019-04-20T09:19:34.854Z,20.60
2019-04-20T09:22:12.198Z,20.80
2019-04-20T09:24:56.256Z,21.00
2019-04-20T09:27:14.495Z,21.00
2019-04-20T09:29:40.631Z,21.10
2019-04-20T09:32:23.158Z,21.20
2019-04-20T09:34:59.741Z,21.40
2019-04-20T09:37:33.014Z,21.50
2019-04-20T09:40:12.964Z,21.60
2019-04-20T09:42:20.420Z,21.70
2019-04-20T09:44:54.373Z,21.70
2019-04-20T09:47:28.387Z,21.80
2019-04-20T09:50:03.414Z,22.00
2019-04-20T09:52:39.937Z,22.00
2019-04-20T09:55:09.234Z,22.20
2019-04-20T09:57:43.774Z,22.10
2019-04-20T10:00:15.879Z,22.40
2019-04-20T10:02:33.040Z,22.60
2019-04-20T10:05:01.905Z,22.80
2019-04-20T10:07:35.349Z,22.80
2019-04-20T10:10:15.873Z,23.00
2019-04-20T10:12:35.538Z,23.00
2019-04-20T10:15:15.232Z,23.20
2019-04-20T10:17:38.632Z,23.40
2019-04-20T10:20:17.191Z,23.40
2019-04-20T10:22:40.559Z,23.20
2019-04-20T10:25:12.871Z,23.40
2019-04-20T10:27:43.699Z,23.70
2019-04-20T10:30:14.607Z,23.90
2019-04-20T10:32:47.178Z,24.10
2019-04-20T10:35:17.495Z,24.30
2019-04-20T10:37:49.407Z,24.20
2019-04-20T10:40:34.404Z,24.20
2019-04-20T10:42:50.392Z,24.30
2019-04-20T10:45:21.153Z,24.10
2019-04-20T10:47:51.277Z,24.20
2019-04-20T10:50:20.975Z,24.20
2019-04-20T10:52:51.869Z,24.00
2019-04-20T10:55:21.750Z,24.10
2019-04-20T10:57:51.453Z,24.20
2019-04-20T11:00:24.181Z,24.20
2019-04-20T11:02:53.841Z,24.40
2019-04-20T11:05:24.471Z,24.40
2019-04-20T11:07:54.724Z,24.80
2019-04-20T11:10:28.554Z,24.80
2019-04-20T11:12:57.015Z,25.00
2019-04-20T11:15:26.754Z,25.00
2019-04-20T11:17:57.519Z,25.20
2019-04-20T11:20:27.586Z,25.10
2019-04-20T11:22:58.580Z,25.20
2019-04-20T11:25:28.382Z,25.40
2019-04-20T11:27:58.557Z,25.20
2019-04-20T11:30:30.041Z,25.60
2019-04-20T11:33:00.229Z,25.50
2019-04-20T11:35:34.417Z,25.40
2019-04-20T11:38:01.204Z,25.60
2019-04-20T11:40:30.939Z,25.90
2019-04-20T11:43:01.606Z,25.60
2019-04-20T11:45:32.910Z,25.30
2019-04-20T11:48:03.302Z,25.60
2019-04-20T11:50:33.677Z,25.70
2019-04-20T11:53:03.577Z,25.80
2019-04-20T11:55:34.086Z,26.10
2019-04-20T11:58:03.852Z,26.30
2019-04-20T12:00:46.929Z,26.10
2019-04-20T12:03:24.877Z,25.80
2019-04-20T12:05:53.161Z,25.40
2019-04-20T12:08:19.091Z,25.80
2019-04-20T12:10:54.070Z,25.90
2019-04-20T12:13:20.570Z,26.10
2019-04-20T12:15:51.727Z,26.30
2019-04-20T12:18:21.614Z,26.30
2019-04-20T12:20:52.535Z,25.90
2019-04-20T12:23:22.492Z,25.90
2019-04-20T12:25:52.387Z,25.80
2019-04-20T12:28:22.159Z,26.00
2019-04-20T12:30:55.949Z,26.00
2019-04-20T12:33:24.232Z,26.50
2019-04-20T12:35:54.306Z,26.10
2019-04-20T12:38:25.246Z,25.90
2019-04-20T12:40:55.676Z,26.30
2019-04-20T12:43:25.518Z,25.90
2019-04-20T12:45:55.832Z,26.10
2019-04-20T12:48:25.927Z,26.30
2019-04-20T12:50:55.722Z,26.50
2019-04-20T12:53:26.480Z,26.00
2019-04-20T12:55:56.800Z,25.90
2019-04-20T12:58:28.459Z,26.10
2019-04-20T13:01:00.557Z,26.50
2019-04-20T13:03:30.279Z,26.70
2019-04-20T13:06:00.025Z,27.40
2019-04-20T13:08:34.626Z,28.10
2019-04-20T13:11:02.937Z,29.40
2019-04-20T13:13:34.613Z,30.40
2019-04-20T13:16:06.150Z,31.80
2019-04-20T13:18:43.391Z,32.60
2019-04-20T13:21:13.338Z,32.50
2019-04-20T13:23:44.797Z,30.10
2019-04-20T13:26:15.663Z,31.20
2019-04-20T13:28:46.759Z,32.60
2019-04-20T13:31:17.677Z,33.80
2019-04-20T13:33:49.452Z,32.40
2019-04-20T13:36:19.908Z,33.80
2019-04-20T13:38:50.037Z,34.30
2019-04-20T13:41:19.928Z,33.30
2019-04-20T13:43:50.278Z,34.90
2019-04-20T13:46:20.807Z,35.80
2019-04-20T13:48:51.058Z,35.60
2019-04-20T13:51:22.774Z,34.80
2019-04-20T13:53:53.250Z,33.40
2019-04-20T13:56:25.859Z,32.70
2019-04-20T13:58:59.844Z,32.80
2019-04-20T14:01:34.752Z,34.30
2019-04-20T14:04:06.154Z,33.60
2019-04-20T14:06:37.202Z,33.10
2019-04-20T14:09:09.749Z,32.70
2019-04-20T14:11:41.386Z,32.40
2019-04-20T14:14:11.378Z,32.10
2019-04-20T14:16:41.243Z,32.90
2019-04-20T14:19:11.260Z,34.60
2019-04-20T14:21:41.761Z,34.70
2019-04-20T14:24:12.991Z,34.80
2019-04-20T14:26:44.560Z,34.90
2019-04-20T14:29:14.761Z,34.40
2019-04-20T14:31:45.874Z,34.60
2019-04-20T14:34:15.624Z,35.10
2019-04-20T14:36:45.202Z,34.10
2019-04-20T14:39:16.193Z,33.20
2019-04-20T14:41:46.556Z,34.10
2019-04-20T14:44:16.335Z,35.70
2019-04-20T14:46:47.456Z,34.60
2019-04-20T14:49:18.633Z,34.90
2019-04-20T14:51:48.326Z,34.70
2019-04-20T14:54:19.013Z,34.20
2019-04-20T14:56:49.545Z,33.40
2019-04-20T14:59:20.849Z,33.40
2019-04-20T15:01:52.483Z,34.30
2019-04-20T15:04:24.943Z,35.20
2019-04-20T15:06:54.738Z,36.50
2019-04-20T15:09:24.749Z,35.60
2019-04-20T15:11:54.876Z,35.40
2019-04-20T15:14:24.842Z,35.70
2019-04-20T15:16:54.679Z,34.80
2019-04-20T15:19:25.891Z,35.00
2019-04-20T15:21:57.726Z,34.80
2019-04-20T15:24:27.467Z,35.90
2019-04-20T15:26:58.316Z,36.20
2019-04-20T15:29:28.527Z,35.10
2019-04-20T15:31:58.289Z,35.80
2019-04-20T15:34:28.894Z,36.80
2019-04-20T15:36:58.717Z,36.90
2019-04-20T15:39:29.198Z,35.90
2019-04-20T15:41:59.558Z,36.30
2019-04-20T15:44:31.462Z,35.70
2019-04-20T15:47:01.473Z,34.20
2019-04-20T15:49:31.518Z,32.70
2019-04-20T15:52:01.773Z,32.00
2019-04-20T15:54:33.716Z,30.40
2019-04-20T15:57:09.813Z,29.70
2019-04-20T15:59:36.002Z,28.20
2019-04-20T16:02:17.620Z,27.80
2019-04-20T16:04:50.541Z,27.40
2019-04-20T16:07:21.498Z,27.50
2019-04-20T16:09:51.651Z,27.20
2019-04-20T16:12:22.871Z,27.30
2019-04-20T16:14:53.675Z,26.90
2019-04-20T16:17:30.748Z,26.50
2019-04-20T16:20:01.302Z,26.40
2019-04-20T16:22:26.775Z,26.20
2019-04-20T16:25:01.270Z,26.50
2019-04-20T16:27:36.127Z,26.80
2019-04-20T16:30:07.541Z,27.10
2019-04-20T16:32:38.479Z,26.80
2019-04-20T16:35:08.768Z,27.30
2019-04-20T16:37:38.533Z,27.50
2019-04-20T16:40:09.734Z,27.30
2019-04-20T16:42:42.126Z,27.00
2019-04-20T16:45:11.664Z,26.90
2019-04-20T16:47:42.129Z,27.50
2019-04-20T16:50:13.098Z,26.50
2019-04-20T16:52:43.162Z,26.40
2019-04-20T16:55:12.990Z,25.90
2019-04-20T16:57:45.004Z,25.30
2019-04-20T17:00:15.633Z,25.00
2019-04-20T17:02:45.525Z,24.70
2019-04-20T17:05:15.364Z,24.80
2019-04-20T17:07:47.033Z,24.50
2019-04-20T17:10:17.965Z,24.40
2019-04-20T17:12:48.094Z,24.10
2019-04-20T17:15:19.278Z,24.10
2019-04-20T17:17:53.958Z,24.10
2019-04-20T17:20:25.656Z,23.50
2019-04-20T17:22:56.257Z,23.50
2019-04-20T17:25:26.043Z,23.50
2019-04-20T17:28:14.950Z,23.50
2019-04-20T17:31:04.404Z,23.50
2019-04-20T17:33:50.703Z,23.60
2019-04-20T17:36:17.356Z,23.50
2019-04-20T17:38:48.552Z,23.40
2019-04-20T17:41:39.115Z,23.30
2019-04-20T17:44:05.899Z,23.20
2019-04-20T17:46:27.299Z,23.10
2019-04-20T17:49:05.569Z,23.00
2019-04-20T17:51:39.218Z,22.90
2019-04-20T17:53:57.680Z,22.90
2019-04-20T17:56:24.351Z,22.80
2019-04-20T17:58:54.299Z,22.70
2019-04-20T18:02:00.365Z,22.60
2019-04-20T18:07:10.875Z,22.60
2019-04-20T18:09:53.406Z,22.40
2019-04-20T18:12:03.323Z,22.30
2019-04-20T18:14:46.073Z,22.30
2019-04-20T18:17:21.787Z,22.40
2019-04-20T18:19:42.896Z,22.10
2019-04-20T18:22:14.003Z,22.10
2019-04-20T18:25:09.105Z,22.10
2019-04-20T18:27:37.403Z,22.10
2019-04-20T18:30:07.077Z,22.10
2019-04-20T18:32:29.268Z,21.90
2019-04-20T18:35:03.403Z,21.80
2019-04-20T18:37:34.391Z,21.60
2019-04-20T18:40:12.543Z,21.40
2019-04-20T18:42:42.104Z,21.20
2019-04-20T18:45:26.794Z,21.10
2019-04-20T18:47:59.968Z,21.10
2019-04-20T18:50:22.392Z,20.90
2019-04-20T18:52:45.398Z,20.90
2019-04-20T18:55:22.027Z,20.80
2019-04-20T18:57:46.976Z,20.60
2019-04-20T19:00:25.032Z,20.60
2019-04-20T19:02:53.864Z,20.70
2019-04-20T19:05:21.980Z,20.50
2019-04-20T19:07:59.250Z,20.50
2019-04-20T19:10:27.204Z,20.50
2019-04-20T19:13:05.847Z,20.50
2019-04-20T19:15:57.817Z,20.60
2019-04-20T19:18:23.873Z,20.50
2019-04-20T19:20:46.207Z,20.50
2019-04-20T19:23:16.857Z,20.40
2019-04-20T19:25:47.713Z,20.40
2019-04-20T19:28:21.626Z,20.40
2019-04-20T19:31:01.708Z,20.40
2019-04-20T19:33:35.577Z,20.30
2019-04-20T19:35:59.744Z,20.30
2019-04-20T19:38:29.389Z,20.20
2019-04-20T19:41:07.076Z,20.00
2019-04-20T19:43:35.134Z,20.00
2019-04-20T19:46:36.650Z,19.90
2019-04-20T19:48:40.577Z,19.90
2019-04-20T19:51:25.596Z,19.90
2019-04-20T19:53:58.743Z,19.90
2019-04-20T19:56:16.639Z,19.80
2019-04-20T19:58:47.176Z,19.80
2019-04-20T20:01:06.637Z,19.70
2019-04-20T20:03:37.616Z,19.70
2019-04-20T20:06:12.012Z,19.80
2019-04-20T20:08:40.486Z,19.70
2019-04-20T20:11:21.735Z,19.70
2019-04-20T20:13:46.955Z,19.70
2019-04-20T20:16:18.597Z,19.60
2019-04-20T20:18:54.259Z,19.60
2019-04-20T20:21:27.409Z,19.50
2019-04-20T20:23:47.816Z,19.50
2019-04-20T20:26:24.366Z,19.50
2019-04-20T20:28:57.745Z,19.40
2019-04-20T20:31:28.262Z,19.30
2019-04-20T20:34:05.983Z,19.30
2019-04-20T20:36:28.898Z,19.30
2019-04-20T20:38:59.098Z,19.30
2019-04-20T20:41:28.892Z,19.20
2019-04-20T20:44:03.751Z,19.10
2019-04-20T20:46:36.090Z,19.00
2019-04-20T20:49:19.002Z,18.90
2019-04-20T20:51:52.811Z,18.80
2019-04-20T20:54:09.923Z,18.80
2019-04-20T20:56:35.822Z,18.70
2019-04-20T20:59:11.489Z,18.70
2019-04-20T21:01:44.054Z,18.70
2019-04-20T21:04:07.008Z,18.70
2019-04-20T21:06:37.728Z,18.60
2019-04-20T21:09:08.191Z,18.50
2019-04-20T21:11:40.195Z,18.40
2019-04-20T21:14:14.438Z,18.30
2019-04-20T21:16:52.234Z,18.40
2019-04-20T21:19:28.476Z,18.30
2019-04-20T21:21:57.100Z,18.30
2019-04-20T21:24:21.143Z,18.30
2019-04-20T21:26:49.918Z,18.20
2019-04-20T21:29:27.400Z,18.10
2019-04-20T21:31:57.434Z,18.10
2019-04-20T21:34:23.648Z,17.90
2019-04-20T21:36:55.301Z,18.00
2019-04-20T21:39:35.006Z,17.90
2019-04-20T21:42:04.176Z,17.80
2019-04-20T21:44:34.771Z,17.70
2019-04-20T21:47:00.037Z,17.70
2019-04-20T21:49:43.681Z,17.70
2019-04-20T21:52:06.102Z,17.60
2019-04-20T21:54:32.401Z,17.60
2019-04-20T21:57:05.826Z,17.50
2019-04-20T21:59:40.938Z,17.50
2019-04-20T22:02:18.314Z,17.50
2019-04-20T22:04:37.575Z,17.40
2019-04-20T22:07:08.080Z,17.40
2019-04-20T22:09:43.353Z,17.40
2019-04-20T22:12:09.800Z,17.40
2019-04-20T22:14:39.896Z,17.40
2019-04-20T22:17:16.342Z,17.30
2019-04-20T22:19:52.679Z,17.30
2019-04-20T22:22:30.803Z,17.40
2019-04-20T22:25:02.706Z,17.30
2019-04-20T22:27:23.679Z,17.10
2019-04-20T22:29:48.141Z,17.00
2019-04-20T22:32:20.450Z,17.10
2019-04-20T22:34:57.021Z,17.10
2019-04-20T22:37:26.996Z,17.10
2019-04-20T22:39:56.353Z,17.00
2019-04-20T22:42:24.669Z,16.80
2019-04-20T22:45:01.871Z,16.70
2019-04-20T22:47:30.312Z,16.60
2019-04-20T22:50:16.207Z,16.50
2019-04-20T22:52:42.729Z,16.60
2019-04-20T22:55:28.243Z,16.60
2019-04-20T22:57:48.425Z,16.60
2019-04-20T23:00:11.088Z,16.50
2019-04-20T23:02:38.855Z,16.30
2019-04-20T23:05:09.132Z,16.30
2019-04-20T23:07:38.973Z,16.30
2019-04-20T23:10:09.033Z,16.40
2019-04-20T23:12:40.235Z,16.40
2019-04-20T23:15:12.155Z,16.30
2019-04-20T23:17:45.415Z,16.20
2019-04-20T23:20:21.211Z,16.10
2019-04-20T23:22:48.990Z,16.10
2019-04-20T23:25:15.767Z,16.10
2019-04-20T23:27:45.766Z,16.10
2019-04-20T23:30:23.736Z,16.00
2019-04-20T23:32:47.151Z,16.00
2019-04-20T23:35:20.112Z,16.00
2019-04-20T23:37:50.581Z,16.00
2019-04-20T23:40:21.637Z,15.90
2019-04-20T23:42:56.005Z,15.90
2019-04-20T23:45:45.697Z,15.90
2019-04-20T23:48:34.852Z,16.00
2019-04-20T23:51:17.170Z,16.00
2019-04-20T23:53:47.694Z,15.90
2019-04-20T23:56:05.791Z,15.80
2019-04-20T23:58:40.639Z,15.70
